BAW46EZ EGLL-LEMD
Flight info
| Callsign | BAW46EZ |
|---|---|
| Flight time | 1h 54m |
| Altitude | 31000 |
| Route | GASGU2J GASGU N866 SAM M195 IBNID/N0472F330 M195 MARUK N621 LELNA DCT NOVAN DCT DELOG N864 NONTU NONTU4C |
| Aircraft | B772/H-SDE2E3FGHIJ5LORVWXY/LB1D1 |
Departure
| Time | 2026-05-04 18:36 |
|---|---|
| Airport | London Heathrow Airport (EGLL) |
Arrival
| Time | 2026-05-04 20:30 |
|---|---|
| Airport | Adolfo Suárez Madrid–Barajas Airport (LEMD) |
| Time | Latitude | Longitude | Altitude | Speed | Heading |
|---|---|---|---|---|---|
| 2026-05-04 18:07 | 51.46982 | -0.48231 | 90 ft | 0 kts | 90° |
| 2026-05-04 18:26 | 51.46982 | -0.48244 | 94 ft | 3 kts | 90° |
| 2026-05-04 18:27 | 51.46982 | -0.48277 | 91 ft | 3 kts | 90° |
| 2026-05-04 18:27 | 51.46982 | -0.48308 | 92 ft | 3 kts | 93° |
| 2026-05-04 18:27 | 51.46985 | -0.48337 | 91 ft | 3 kts | 126° |
| 2026-05-04 18:27 | 51.46998 | -0.48355 | 92 ft | 2 kts | 173° |
| 2026-05-04 18:28 | 51.47008 | -0.48356 | 91 ft | 2 kts | 180° |
| 2026-05-04 18:28 | 51.47027 | -0.48356 | 92 ft | 2 kts | 180° |
| 2026-05-04 18:28 | 51.47033 | -0.48356 | 92 ft | 0 kts | 180° |
| 2026-05-04 18:31 | 51.47032 | -0.48356 | 92 ft | 1 kts | 180° |
| 2026-05-04 18:31 | 51.46995 | -0.48356 | 92 ft | 8 kts | 179° |
| 2026-05-04 18:31 | 51.46939 | -0.48355 | 94 ft | 8 kts | 179° |
| 2026-05-04 18:32 | 51.46884 | -0.48354 | 92 ft | 8 kts | 179° |
| 2026-05-04 18:32 | 51.46839 | -0.48354 | 91 ft | 3 kts | 180° |
| 2026-05-04 18:32 | 51.46838 | -0.48354 | 91 ft | 0 kts | 180° |
| 2026-05-04 18:32 | 51.46833 | -0.48354 | 91 ft | 4 kts | 180° |
| 2026-05-04 18:33 | 51.46782 | -0.48355 | 91 ft | 8 kts | 185° |
| 2026-05-04 18:33 | 51.46744 | -0.48418 | 93 ft | 8 kts | 253° |
| 2026-05-04 18:33 | 51.46742 | -0.48512 | 91 ft | 8 kts | 270° |
| 2026-05-04 18:33 | 51.46742 | -0.48605 | 91 ft | 8 kts | 270° |
| 2026-05-04 18:34 | 51.46738 | -0.48698 | 91 ft | 8 kts | 254° |
| 2026-05-04 18:34 | 51.46689 | -0.48744 | 94 ft | 9 kts | 186° |
| 2026-05-04 18:34 | 51.46628 | -0.48752 | 93 ft | 9 kts | 184° |
| 2026-05-04 18:34 | 51.46576 | -0.48777 | 93 ft | 8 kts | 198° |
| 2026-05-04 18:35 | 51.46514 | -0.48769 | 93 ft | 11 kts | 153° |
| 2026-05-04 18:35 | 51.46478 | -0.48661 | 93 ft | 11 kts | 95° |
| 2026-05-04 18:35 | 51.46479 | -0.48519 | 91 ft | 21 kts | 88° |
| 2026-05-04 18:35 | 51.46482 | -0.47946 | 94 ft | 93 kts | 90° |
| 2026-05-04 18:36 | 51.46496 | -0.46475 | 168 ft | 162 kts | 89° |
| 2026-05-04 18:36 | 51.46486 | -0.44566 | 954 ft | 176 kts | 85° |
| 2026-05-04 18:36 | 51.46619 | -0.42611 | 1911 ft | 181 kts | 78° |
| 2026-05-04 18:36 | 51.46580 | -0.40474 | 2303 ft | 212 kts | 109° |
| 2026-05-04 18:37 | 51.45636 | -0.38508 | 2748 ft | 231 kts | 131° |
| 2026-05-04 18:37 | 51.44548 | -0.36522 | 3329 ft | 247 kts | 127° |
| 2026-05-04 18:37 | 51.43412 | -0.34376 | 3937 ft | 259 kts | 137° |
| 2026-05-04 18:37 | 51.41810 | -0.32986 | 4764 ft | 268 kts | 164° |
| 2026-05-04 18:38 | 51.39954 | -0.32733 | 5587 ft | 270 kts | 187° |
| 2026-05-04 18:38 | 51.38179 | -0.33670 | 6016 ft | 271 kts | 211° |
| 2026-05-04 18:38 | 51.36714 | -0.35580 | 6002 ft | 272 kts | 224° |
| 2026-05-04 18:38 | 51.35332 | -0.37672 | 6420 ft | 275 kts | 223° |
| 2026-05-04 18:39 | 51.33928 | -0.39735 | 7362 ft | 273 kts | 223° |
| 2026-05-04 18:39 | 51.32509 | -0.41803 | 8105 ft | 279 kts | 221° |
| 2026-05-04 18:39 | 51.31193 | -0.44013 | 8894 ft | 281 kts | 233° |
| 2026-05-04 18:39 | 51.30216 | -0.46734 | 9680 ft | 283 kts | 245° |
| 2026-05-04 18:40 | 51.29540 | -0.49710 | 10351 ft | 291 kts | 252° |
| 2026-05-04 18:40 | 51.28952 | -0.52990 | 10563 ft | 315 kts | 253° |
| 2026-05-04 18:40 | 51.28352 | -0.56440 | 10760 ft | 339 kts | 254° |
| 2026-05-04 18:40 | 51.27691 | -0.60147 | 11347 ft | 353 kts | 253° |
| 2026-05-04 18:41 | 51.26963 | -0.63943 | 12196 ft | 361 kts | 252° |
| 2026-05-04 18:41 | 51.26218 | -0.67760 | 13251 ft | 366 kts | 253° |
| 2026-05-04 18:41 | 51.25446 | -0.71710 | 14232 ft | 372 kts | 253° |
| 2026-05-04 18:41 | 51.24671 | -0.75679 | 15132 ft | 378 kts | 252° |
| 2026-05-04 18:42 | 51.23811 | -0.79640 | 15969 ft | 379 kts | 244° |
| 2026-05-04 18:42 | 51.22332 | -0.83140 | 16784 ft | 384 kts | 225° |
| 2026-05-04 18:42 | 51.20235 | -0.85774 | 17671 ft | 382 kts | 211° |
| 2026-05-04 18:42 | 51.17958 | -0.88049 | 18372 ft | 391 kts | 212° |
| 2026-05-04 18:43 | 51.15630 | -0.90447 | 19107 ft | 395 kts | 212° |
| 2026-05-04 18:43 | 51.13354 | -0.92821 | 19899 ft | 397 kts | 212° |
| 2026-05-04 18:43 | 51.11046 | -0.95240 | 20718 ft | 399 kts | 212° |
| 2026-05-04 18:43 | 51.08719 | -0.97682 | 21438 ft | 402 kts | 212° |
| 2026-05-04 18:44 | 51.06374 | -1.00144 | 22151 ft | 406 kts | 212° |
| 2026-05-04 18:44 | 51.04782 | -1.01815 | 22648 ft | 408 kts | 212° |
| 2026-05-04 18:44 | 51.01621 | -1.05130 | 23583 ft | 413 kts | 212° |
| 2026-05-04 18:44 | 50.99209 | -1.07657 | 24178 ft | 417 kts | 212° |
| 2026-05-04 18:45 | 50.96788 | -1.10190 | 24809 ft | 418 kts | 212° |
| 2026-05-04 18:45 | 50.94348 | -1.12739 | 25459 ft | 420 kts | 212° |
| 2026-05-04 18:45 | 50.91902 | -1.15292 | 26070 ft | 422 kts | 212° |
| 2026-05-04 18:45 | 50.89442 | -1.17856 | 26627 ft | 426 kts | 212° |
| 2026-05-04 18:46 | 50.86957 | -1.20442 | 27197 ft | 429 kts | 211° |
| 2026-05-04 18:46 | 50.84441 | -1.23058 | 27664 ft | 434 kts | 211° |
| 2026-05-04 18:46 | 50.81907 | -1.25687 | 28197 ft | 437 kts | 211° |
| 2026-05-04 18:46 | 50.79359 | -1.28329 | 28782 ft | 439 kts | 211° |
| 2026-05-04 18:47 | 50.76798 | -1.30981 | 29335 ft | 441 kts | 211° |
| 2026-05-04 18:47 | 50.74228 | -1.33638 | 30010 ft | 441 kts | 211° |
| 2026-05-04 18:47 | 50.71706 | -1.36245 | 30687 ft | 438 kts | 211° |
| 2026-05-04 18:47 | 50.69111 | -1.38921 | 31025 ft | 442 kts | 211° |
| 2026-05-04 18:48 | 50.66534 | -1.41576 | 31009 ft | 441 kts | 211° |
| 2026-05-04 18:48 | 50.61442 | -1.46810 | 30996 ft | 441 kts | 211° |
| 2026-05-04 18:49 | 50.56307 | -1.52075 | 30994 ft | 441 kts | 211° |
| 2026-05-04 18:49 | 50.51157 | -1.57339 | 30996 ft | 441 kts | 211° |
| 2026-05-04 18:50 | 50.46006 | -1.62593 | 30992 ft | 441 kts | 211° |
| 2026-05-04 18:50 | 50.40856 | -1.67831 | 30998 ft | 441 kts | 211° |
| 2026-05-04 18:51 | 50.35704 | -1.73057 | 30996 ft | 441 kts | 210° |
| 2026-05-04 18:51 | 50.30559 | -1.78263 | 30991 ft | 440 kts | 210° |
| 2026-05-04 18:52 | 50.25415 | -1.83453 | 30992 ft | 440 kts | 210° |
| 2026-05-04 18:52 | 50.20268 | -1.88635 | 31000 ft | 441 kts | 210° |
| 2026-05-04 18:53 | 50.15111 | -1.93811 | 30997 ft | 440 kts | 210° |
| 2026-05-04 18:53 | 50.09927 | -1.99002 | 31108 ft | 450 kts | 210° |
| 2026-05-04 18:53 | 50.07277 | -2.01651 | 31460 ft | 453 kts | 210° |
| 2026-05-04 18:54 | 50.04625 | -2.04300 | 31951 ft | 453 kts | 210° |
| 2026-05-04 18:54 | 50.01974 | -2.06943 | 32468 ft | 453 kts | 210° |
| 2026-05-04 18:54 | 49.99255 | -2.09410 | 32936 ft | 453 kts | 205° |
| 2026-05-04 18:55 | 49.93375 | -2.13088 | 32991 ft | 452 kts | 195° |
| 2026-05-04 18:55 | 49.84461 | -2.17143 | 33013 ft | 448 kts | 195° |
| 2026-05-04 18:56 | 49.78479 | -2.19899 | 33019 ft | 449 kts | 195° |
| 2026-05-04 18:56 | 49.72501 | -2.22669 | 33037 ft | 448 kts | 195° |
| 2026-05-04 18:57 | 49.66555 | -2.25425 | 33034 ft | 445 kts | 195° |
| 2026-05-04 18:57 | 49.60608 | -2.28173 | 33024 ft | 447 kts | 195° |
| 2026-05-04 18:58 | 49.54636 | -2.30925 | 33014 ft | 449 kts | 195° |
| 2026-05-04 18:58 | 49.48655 | -2.33674 | 33005 ft | 448 kts | 195° |
| 2026-05-04 18:59 | 49.42713 | -2.36399 | 32991 ft | 443 kts | 195° |
| 2026-05-04 18:59 | 49.36822 | -2.39094 | 32989 ft | 441 kts | 195° |
| 2026-05-04 19:00 | 49.30947 | -2.41773 | 32995 ft | 441 kts | 195° |
| 2026-05-04 19:00 | 49.25065 | -2.44449 | 33002 ft | 441 kts | 195° |
| 2026-05-04 19:01 | 49.19191 | -2.47115 | 32992 ft | 441 kts | 195° |
| 2026-05-04 19:01 | 49.13307 | -2.49779 | 32993 ft | 441 kts | 195° |
| 2026-05-04 19:02 | 49.08452 | -2.51972 | 32993 ft | 441 kts | 195° |
| 2026-05-04 19:02 | 49.02572 | -2.54623 | 32997 ft | 440 kts | 194° |
| 2026-05-04 19:03 | 48.96746 | -2.57242 | 32990 ft | 439 kts | 194° |
| 2026-05-04 19:03 | 48.90891 | -2.59868 | 32992 ft | 438 kts | 194° |
| 2026-05-04 19:04 | 48.85042 | -2.62485 | 33018 ft | 438 kts | 194° |
| 2026-05-04 19:04 | 48.79143 | -2.65117 | 33000 ft | 445 kts | 194° |
| 2026-05-04 19:05 | 48.73162 | -2.67779 | 32999 ft | 450 kts | 194° |
| 2026-05-04 19:05 | 48.67129 | -2.70458 | 32995 ft | 453 kts | 194° |
| 2026-05-04 19:06 | 48.61097 | -2.73132 | 32992 ft | 450 kts | 194° |
| 2026-05-04 19:06 | 48.55117 | -2.75777 | 32987 ft | 446 kts | 194° |
| 2026-05-04 19:07 | 48.49171 | -2.78398 | 32993 ft | 445 kts | 194° |
| 2026-05-04 19:07 | 48.43226 | -2.81011 | 32989 ft | 445 kts | 194° |
| 2026-05-04 19:08 | 48.37272 | -2.83623 | 32993 ft | 446 kts | 194° |
| 2026-05-04 19:08 | 48.32318 | -2.85792 | 32984 ft | 446 kts | 194° |
| 2026-05-04 19:09 | 48.26358 | -2.88394 | 32983 ft | 446 kts | 194° |
| 2026-05-04 19:09 | 48.20401 | -2.90990 | 32982 ft | 446 kts | 194° |
| 2026-05-04 19:10 | 48.15415 | -2.93158 | 32989 ft | 445 kts | 194° |
| 2026-05-04 19:10 | 48.08504 | -2.96155 | 32979 ft | 444 kts | 194° |
| 2026-05-04 19:11 | 48.02560 | -2.98725 | 32981 ft | 447 kts | 194° |
| 2026-05-04 19:11 | 47.96553 | -3.01316 | 32985 ft | 452 kts | 194° |
| 2026-05-04 19:12 | 47.87450 | -3.05232 | 32987 ft | 454 kts | 194° |
| 2026-05-04 19:13 | 47.81387 | -3.07833 | 32987 ft | 452 kts | 194° |
| 2026-05-04 19:13 | 47.75347 | -3.10418 | 32980 ft | 451 kts | 194° |
| 2026-05-04 19:14 | 47.69325 | -3.12987 | 32982 ft | 450 kts | 194° |
| 2026-05-04 19:14 | 47.63306 | -3.15550 | 32982 ft | 450 kts | 194° |
| 2026-05-04 19:15 | 47.57280 | -3.18109 | 32978 ft | 451 kts | 194° |
| 2026-05-04 19:15 | 47.51251 | -3.20663 | 32977 ft | 451 kts | 194° |
| 2026-05-04 19:16 | 47.45220 | -3.23213 | 32973 ft | 451 kts | 194° |
| 2026-05-04 19:16 | 47.39192 | -3.25755 | 32973 ft | 451 kts | 194° |
| 2026-05-04 19:17 | 47.33161 | -3.28292 | 32983 ft | 451 kts | 194° |
| 2026-05-04 19:17 | 47.27128 | -3.30825 | 32981 ft | 451 kts | 194° |
| 2026-05-04 19:18 | 47.21081 | -3.33357 | 32986 ft | 453 kts | 194° |
| 2026-05-04 19:18 | 47.15012 | -3.35892 | 32986 ft | 454 kts | 194° |
| 2026-05-04 19:19 | 47.08937 | -3.38424 | 32987 ft | 454 kts | 194° |
| 2026-05-04 19:19 | 47.02865 | -3.40948 | 32985 ft | 453 kts | 194° |
| 2026-05-04 19:20 | 46.96796 | -3.43465 | 32986 ft | 453 kts | 194° |
| 2026-05-04 19:20 | 46.90732 | -3.45975 | 32989 ft | 453 kts | 194° |
| 2026-05-04 19:21 | 46.84678 | -3.48474 | 32990 ft | 452 kts | 194° |
| 2026-05-04 19:21 | 46.78636 | -3.50963 | 32991 ft | 451 kts | 194° |
| 2026-05-04 19:22 | 46.72600 | -3.53443 | 32991 ft | 451 kts | 194° |
| 2026-05-04 19:22 | 46.66562 | -3.55918 | 32992 ft | 451 kts | 194° |
| 2026-05-04 19:23 | 46.60519 | -3.58390 | 32995 ft | 451 kts | 194° |
| 2026-05-04 19:23 | 46.54476 | -3.60856 | 32994 ft | 451 kts | 194° |
| 2026-05-04 19:24 | 46.48428 | -3.63319 | 33008 ft | 452 kts | 194° |
| 2026-05-04 19:24 | 46.42367 | -3.65781 | 32996 ft | 453 kts | 194° |
| 2026-05-04 19:25 | 46.36299 | -3.68241 | 32994 ft | 453 kts | 194° |
| 2026-05-04 19:25 | 46.30175 | -3.70299 | 32998 ft | 451 kts | 187° |
| 2026-05-04 19:26 | 46.23934 | -3.71187 | 32996 ft | 450 kts | 185° |
| 2026-05-04 19:26 | 46.17708 | -3.72077 | 32997 ft | 449 kts | 185° |
| 2026-05-04 19:27 | 46.11485 | -3.72995 | 32997 ft | 449 kts | 185° |
| 2026-05-04 19:27 | 46.05270 | -3.73921 | 32997 ft | 449 kts | 186° |
| 2026-05-04 19:28 | 45.99063 | -3.74845 | 33003 ft | 449 kts | 186° |
| 2026-05-04 19:28 | 45.92854 | -3.75767 | 33003 ft | 449 kts | 186° |
| 2026-05-04 19:29 | 45.86689 | -3.76679 | 33001 ft | 448 kts | 186° |
| 2026-05-04 19:29 | 45.80497 | -3.77593 | 33002 ft | 447 kts | 186° |
| 2026-05-04 19:30 | 45.74314 | -3.78504 | 33003 ft | 447 kts | 186° |
| 2026-05-04 19:30 | 45.68135 | -3.79412 | 33003 ft | 446 kts | 186° |
| 2026-05-04 19:31 | 45.61958 | -3.80318 | 33000 ft | 446 kts | 186° |
| 2026-05-04 19:31 | 45.55784 | -3.81221 | 33000 ft | 446 kts | 186° |
| 2026-05-04 19:32 | 45.49622 | -3.82121 | 33005 ft | 447 kts | 186° |
| 2026-05-04 19:32 | 45.43450 | -3.83020 | 33005 ft | 447 kts | 186° |
| 2026-05-04 19:33 | 45.37256 | -3.83921 | 33003 ft | 447 kts | 186° |
| 2026-05-04 19:33 | 45.31064 | -3.84819 | 33003 ft | 447 kts | 186° |
| 2026-05-04 19:34 | 45.24874 | -3.85714 | 33015 ft | 447 kts | 186° |
| 2026-05-04 19:34 | 45.18671 | -3.86610 | 33019 ft | 449 kts | 186° |
| 2026-05-04 19:35 | 45.12446 | -3.87507 | 33003 ft | 450 kts | 187° |
| 2026-05-04 19:35 | 45.06215 | -3.88403 | 33013 ft | 450 kts | 186° |
| 2026-05-04 19:36 | 44.99979 | -3.89297 | 33011 ft | 450 kts | 186° |
| 2026-05-04 19:36 | 44.93750 | -3.90189 | 33011 ft | 450 kts | 186° |
| 2026-05-04 19:37 | 44.87531 | -3.91077 | 33017 ft | 449 kts | 187° |
| 2026-05-04 19:37 | 44.81362 | -3.91957 | 33012 ft | 448 kts | 187° |
| 2026-05-04 19:38 | 44.75157 | -3.92839 | 33015 ft | 448 kts | 187° |
| 2026-05-04 19:38 | 44.68952 | -3.93720 | 33017 ft | 448 kts | 187° |
| 2026-05-04 19:39 | 44.62747 | -3.94599 | 33019 ft | 448 kts | 187° |
| 2026-05-04 19:39 | 44.56535 | -3.95476 | 33016 ft | 449 kts | 187° |
| 2026-05-04 19:40 | 44.50328 | -3.96351 | 33012 ft | 448 kts | 187° |
| 2026-05-04 19:40 | 44.44124 | -3.97225 | 33017 ft | 448 kts | 187° |
| 2026-05-04 19:41 | 44.37920 | -3.98096 | 33018 ft | 448 kts | 187° |
| 2026-05-04 19:41 | 44.31704 | -3.98710 | 33018 ft | 449 kts | 181° |
| 2026-05-04 19:42 | 44.25460 | -3.98112 | 33023 ft | 450 kts | 177° |
| 2026-05-04 19:42 | 44.19212 | -3.97454 | 33024 ft | 450 kts | 178° |
| 2026-05-04 19:43 | 44.12957 | -3.96833 | 33012 ft | 451 kts | 178° |
| 2026-05-04 19:43 | 44.06686 | -3.96220 | 33027 ft | 452 kts | 178° |
| 2026-05-04 19:44 | 44.00399 | -3.95607 | 33024 ft | 453 kts | 178° |
| 2026-05-04 19:44 | 43.94104 | -3.94992 | 33018 ft | 454 kts | 178° |
| 2026-05-04 19:45 | 43.87787 | -3.94377 | 33027 ft | 455 kts | 178° |
| 2026-05-04 19:45 | 43.81461 | -3.93762 | 33031 ft | 456 kts | 178° |
| 2026-05-04 19:46 | 43.75127 | -3.93147 | 33017 ft | 456 kts | 179° |
| 2026-05-04 19:46 | 43.68794 | -3.92525 | 33027 ft | 456 kts | 179° |
| 2026-05-04 19:47 | 43.62452 | -3.91903 | 33039 ft | 457 kts | 179° |
| 2026-05-04 19:47 | 43.56113 | -3.91283 | 33032 ft | 457 kts | 179° |
| 2026-05-04 19:48 | 43.49777 | -3.90665 | 33055 ft | 456 kts | 179° |
| 2026-05-04 19:48 | 43.43448 | -3.90376 | 33045 ft | 453 kts | 186° |
| 2026-05-04 19:49 | 43.37240 | -3.91310 | 33043 ft | 452 kts | 189° |
| 2026-05-04 19:49 | 43.30995 | -3.92284 | 33041 ft | 452 kts | 189° |
| 2026-05-04 19:50 | 43.24740 | -3.93223 | 33045 ft | 452 kts | 189° |
| 2026-05-04 19:50 | 43.18480 | -3.94150 | 33041 ft | 452 kts | 189° |
| 2026-05-04 19:51 | 43.12230 | -3.95073 | 33045 ft | 451 kts | 189° |
| 2026-05-04 19:51 | 43.05988 | -3.95996 | 33056 ft | 451 kts | 189° |
| 2026-05-04 19:52 | 42.99745 | -3.96918 | 33052 ft | 451 kts | 189° |
| 2026-05-04 19:52 | 42.93506 | -3.97837 | 33038 ft | 451 kts | 190° |
| 2026-05-04 19:53 | 42.87276 | -3.98748 | 33054 ft | 450 kts | 190° |
| 2026-05-04 19:53 | 42.81041 | -3.99658 | 33050 ft | 450 kts | 190° |
| 2026-05-04 19:54 | 42.75866 | -4.00414 | 33038 ft | 450 kts | 190° |
| 2026-05-04 19:54 | 42.69638 | -4.01322 | 33043 ft | 450 kts | 190° |
| 2026-05-04 19:55 | 42.62396 | -4.02375 | 33026 ft | 450 kts | 190° |
| 2026-05-04 19:55 | 42.56168 | -4.03277 | 33034 ft | 450 kts | 190° |
| 2026-05-04 19:56 | 42.50946 | -4.04028 | 33014 ft | 450 kts | 191° |
| 2026-05-04 19:56 | 42.44735 | -4.04919 | 33018 ft | 448 kts | 191° |
| 2026-05-04 19:57 | 42.38538 | -4.05808 | 33021 ft | 448 kts | 191° |
| 2026-05-04 19:57 | 42.32339 | -4.06695 | 33004 ft | 448 kts | 191° |
| 2026-05-04 19:58 | 42.26139 | -4.07581 | 33011 ft | 448 kts | 191° |
| 2026-05-04 19:58 | 42.19989 | -4.08457 | 33007 ft | 445 kts | 191° |
| 2026-05-04 19:58 | 42.16953 | -4.08885 | 32865 ft | 434 kts | 191° |
| 2026-05-04 19:59 | 42.13956 | -4.09310 | 32119 ft | 432 kts | 191° |
| 2026-05-04 19:59 | 42.10967 | -4.09737 | 31255 ft | 432 kts | 192° |
| 2026-05-04 19:59 | 42.07976 | -4.10165 | 30319 ft | 433 kts | 192° |
| 2026-05-04 19:59 | 42.04978 | -4.10592 | 29174 ft | 435 kts | 192° |
| 2026-05-04 20:00 | 42.01985 | -4.11011 | 28365 ft | 429 kts | 191° |
| 2026-05-04 20:00 | 41.99031 | -4.11374 | 27589 ft | 424 kts | 190° |
| 2026-05-04 20:00 | 41.96110 | -4.11701 | 26830 ft | 419 kts | 189° |
| 2026-05-04 20:00 | 41.93220 | -4.12016 | 26060 ft | 414 kts | 189° |
| 2026-05-04 20:01 | 41.90362 | -4.12329 | 25296 ft | 410 kts | 189° |
| 2026-05-04 20:01 | 41.87533 | -4.12644 | 24572 ft | 406 kts | 189° |
| 2026-05-04 20:01 | 41.84725 | -4.12961 | 23853 ft | 403 kts | 189° |
| 2026-05-04 20:01 | 41.81936 | -4.13278 | 23060 ft | 401 kts | 189° |
| 2026-05-04 20:02 | 41.79170 | -4.13593 | 22280 ft | 398 kts | 189° |
| 2026-05-04 20:02 | 41.76423 | -4.13906 | 21604 ft | 396 kts | 189° |
| 2026-05-04 20:02 | 41.73675 | -4.14219 | 21071 ft | 396 kts | 188° |
| 2026-05-04 20:02 | 41.70924 | -4.14533 | 20566 ft | 397 kts | 188° |
| 2026-05-04 20:03 | 41.68172 | -4.14846 | 20079 ft | 397 kts | 189° |
| 2026-05-04 20:03 | 41.65421 | -4.15158 | 19639 ft | 396 kts | 188° |
| 2026-05-04 20:03 | 41.62680 | -4.15467 | 19225 ft | 394 kts | 188° |
| 2026-05-04 20:03 | 41.59958 | -4.15774 | 18862 ft | 392 kts | 188° |
| 2026-05-04 20:04 | 41.57251 | -4.16080 | 18497 ft | 389 kts | 188° |
| 2026-05-04 20:04 | 41.54557 | -4.16386 | 18119 ft | 387 kts | 188° |
| 2026-05-04 20:04 | 41.51876 | -4.16689 | 17721 ft | 386 kts | 188° |
| 2026-05-04 20:04 | 41.49209 | -4.16988 | 17344 ft | 384 kts | 188° |
| 2026-05-04 20:05 | 41.46552 | -4.17287 | 16981 ft | 382 kts | 188° |
| 2026-05-04 20:05 | 41.43910 | -4.17584 | 16641 ft | 380 kts | 188° |
| 2026-05-04 20:05 | 41.41283 | -4.17881 | 16309 ft | 379 kts | 188° |
| 2026-05-04 20:05 | 41.38659 | -4.18176 | 15975 ft | 378 kts | 188° |
| 2026-05-04 20:06 | 41.36045 | -4.18470 | 15644 ft | 377 kts | 188° |
| 2026-05-04 20:06 | 41.33435 | -4.18763 | 15315 ft | 376 kts | 187° |
| 2026-05-04 20:06 | 41.30836 | -4.19055 | 15086 ft | 373 kts | 187° |
| 2026-05-04 20:06 | 41.28260 | -4.19344 | 15030 ft | 372 kts | 187° |
| 2026-05-04 20:07 | 41.25667 | -4.19627 | 15002 ft | 374 kts | 187° |
| 2026-05-04 20:07 | 41.23063 | -4.19821 | 15005 ft | 376 kts | 186° |
| 2026-05-04 20:07 | 41.20449 | -4.19967 | 15004 ft | 376 kts | 185° |
| 2026-05-04 20:07 | 41.17833 | -4.20105 | 15007 ft | 376 kts | 185° |
| 2026-05-04 20:08 | 41.15254 | -4.20244 | 15008 ft | 376 kts | 185° |
| 2026-05-04 20:08 | 41.12642 | -4.20392 | 15006 ft | 376 kts | 185° |
| 2026-05-04 20:08 | 41.10027 | -4.20545 | 15006 ft | 376 kts | 186° |
| 2026-05-04 20:08 | 41.07417 | -4.20701 | 15007 ft | 376 kts | 186° |
| 2026-05-04 20:09 | 41.04806 | -4.20859 | 14996 ft | 376 kts | 186° |
| 2026-05-04 20:09 | 41.02195 | -4.21017 | 15008 ft | 375 kts | 186° |
| 2026-05-04 20:09 | 40.99588 | -4.21175 | 15010 ft | 375 kts | 186° |
| 2026-05-04 20:09 | 40.96980 | -4.21334 | 15005 ft | 375 kts | 186° |
| 2026-05-04 20:10 | 40.94377 | -4.21491 | 15007 ft | 375 kts | 186° |
| 2026-05-04 20:10 | 40.91773 | -4.21649 | 15009 ft | 374 kts | 186° |
| 2026-05-04 20:10 | 40.89171 | -4.21806 | 15007 ft | 374 kts | 186° |
| 2026-05-04 20:10 | 40.86570 | -4.21963 | 15008 ft | 374 kts | 186° |
| 2026-05-04 20:11 | 40.83969 | -4.22120 | 15006 ft | 374 kts | 186° |
| 2026-05-04 20:11 | 40.81365 | -4.22277 | 15005 ft | 374 kts | 186° |
| 2026-05-04 20:11 | 40.78769 | -4.22434 | 15002 ft | 374 kts | 186° |
| 2026-05-04 20:11 | 40.76173 | -4.22590 | 15001 ft | 374 kts | 186° |
| 2026-05-04 20:12 | 40.73577 | -4.22746 | 14954 ft | 372 kts | 186° |
| 2026-05-04 20:12 | 40.71004 | -4.22900 | 14482 ft | 368 kts | 186° |
| 2026-05-04 20:12 | 40.68455 | -4.23051 | 13873 ft | 366 kts | 186° |
| 2026-05-04 20:12 | 40.65924 | -4.23205 | 13424 ft | 359 kts | 186° |
| 2026-05-04 20:13 | 40.63446 | -4.23351 | 13243 ft | 359 kts | 186° |
| 2026-05-04 20:13 | 40.60932 | -4.23505 | 13045 ft | 364 kts | 186° |
| 2026-05-04 20:13 | 40.58392 | -4.23658 | 12859 ft | 366 kts | 186° |
| 2026-05-04 20:13 | 40.55859 | -4.23809 | 12663 ft | 364 kts | 186° |
| 2026-05-04 20:14 | 40.53347 | -4.23927 | 12464 ft | 357 kts | 182° |
| 2026-05-04 20:14 | 40.50915 | -4.23367 | 12303 ft | 351 kts | 163° |
| 2026-05-04 20:14 | 40.48736 | -4.22133 | 12125 ft | 334 kts | 161° |
| 2026-05-04 20:14 | 40.46626 | -4.20989 | 11938 ft | 322 kts | 162° |
| 2026-05-04 20:15 | 40.44575 | -4.19925 | 11764 ft | 313 kts | 162° |
| 2026-05-04 20:15 | 40.42579 | -4.18900 | 11607 ft | 304 kts | 163° |
| 2026-05-04 20:15 | 40.40642 | -4.17908 | 11458 ft | 295 kts | 163° |
| 2026-05-04 20:15 | 40.38753 | -4.16941 | 11298 ft | 287 kts | 162° |
| 2026-05-04 20:16 | 40.36919 | -4.16003 | 11163 ft | 279 kts | 162° |
| 2026-05-04 20:16 | 40.35213 | -4.14988 | 10993 ft | 270 kts | 148° |
| 2026-05-04 20:16 | 40.33980 | -4.13166 | 10883 ft | 270 kts | 120° |
| 2026-05-04 20:16 | 40.33316 | -4.10891 | 10728 ft | 267 kts | 110° |
| 2026-05-04 20:17 | 40.32743 | -4.08578 | 10612 ft | 267 kts | 110° |
| 2026-05-04 20:17 | 40.32169 | -4.06257 | 10465 ft | 268 kts | 110° |
| 2026-05-04 20:17 | 40.31594 | -4.03927 | 10313 ft | 269 kts | 110° |
| 2026-05-04 20:17 | 40.31014 | -4.01587 | 10174 ft | 270 kts | 110° |
| 2026-05-04 20:18 | 40.30432 | -3.99246 | 10013 ft | 270 kts | 110° |
| 2026-05-04 20:18 | 40.29852 | -3.96924 | 9858 ft | 266 kts | 110° |
| 2026-05-04 20:18 | 40.29283 | -3.94647 | 9688 ft | 261 kts | 110° |
| 2026-05-04 20:18 | 40.28717 | -3.92396 | 9554 ft | 260 kts | 110° |
| 2026-05-04 20:19 | 40.28152 | -3.90149 | 9407 ft | 260 kts | 110° |
| 2026-05-04 20:19 | 40.27586 | -3.87903 | 9262 ft | 260 kts | 110° |
| 2026-05-04 20:19 | 40.27020 | -3.85657 | 9123 ft | 260 kts | 109° |
| 2026-05-04 20:19 | 40.26448 | -3.83392 | 8782 ft | 266 kts | 109° |
| 2026-05-04 20:20 | 40.25847 | -3.81018 | 8592 ft | 284 kts | 109° |
| 2026-05-04 20:20 | 40.25213 | -3.78514 | 8608 ft | 293 kts | 109° |
| 2026-05-04 20:20 | 40.24568 | -3.75971 | 8547 ft | 295 kts | 110° |
| 2026-05-04 20:20 | 40.23920 | -3.73418 | 8467 ft | 295 kts | 109° |
| 2026-05-04 20:21 | 40.23273 | -3.70871 | 8315 ft | 295 kts | 109° |
| 2026-05-04 20:21 | 40.22624 | -3.68322 | 8126 ft | 295 kts | 109° |
| 2026-05-04 20:21 | 40.21328 | -3.63236 | 7697 ft | 297 kts | 109° |
| 2026-05-04 20:22 | 40.20671 | -3.60657 | 7448 ft | 292 kts | 109° |
| 2026-05-04 20:22 | 40.20043 | -3.58189 | 7233 ft | 287 kts | 108° |
| 2026-05-04 20:22 | 40.19756 | -3.55641 | 6981 ft | 286 kts | 84° |
| 2026-05-04 20:22 | 40.20357 | -3.53188 | 6770 ft | 285 kts | 57° |
| 2026-05-04 20:23 | 40.21506 | -3.51102 | 6577 ft | 284 kts | 51° |
| 2026-05-04 20:23 | 40.22706 | -3.49034 | 6367 ft | 287 kts | 51° |
| 2026-05-04 20:23 | 40.23911 | -3.46958 | 6129 ft | 286 kts | 51° |
| 2026-05-04 20:23 | 40.25108 | -3.44897 | 5894 ft | 280 kts | 50° |
| 2026-05-04 20:24 | 40.26274 | -3.42888 | 5677 ft | 271 kts | 50° |
| 2026-05-04 20:24 | 40.27381 | -3.40977 | 5450 ft | 256 kts | 50° |
| 2026-05-04 20:24 | 40.28569 | -3.39375 | 5240 ft | 238 kts | 27° |
| 2026-05-04 20:24 | 40.30065 | -3.38656 | 5122 ft | 226 kts | 10° |
| 2026-05-04 20:25 | 40.31609 | -3.38398 | 5049 ft | 220 kts | 348° |
| 2026-05-04 20:25 | 40.32944 | -3.39117 | 5019 ft | 201 kts | 324° |
| 2026-05-04 20:25 | 40.34052 | -3.40134 | 4998 ft | 191 kts | 321° |
| 2026-05-04 20:25 | 40.35108 | -3.41174 | 4951 ft | 191 kts | 320° |
| 2026-05-04 20:26 | 40.36176 | -3.42254 | 4674 ft | 193 kts | 320° |
| 2026-05-04 20:26 | 40.37212 | -3.43305 | 4400 ft | 183 kts | 320° |
| 2026-05-04 20:26 | 40.38170 | -3.44278 | 4195 ft | 165 kts | 321° |
| 2026-05-04 20:26 | 40.39030 | -3.45151 | 3965 ft | 150 kts | 321° |
| 2026-05-04 20:27 | 40.39847 | -3.45981 | 3801 ft | 149 kts | 321° |
| 2026-05-04 20:27 | 40.40665 | -3.46814 | 3586 ft | 147 kts | 321° |
| 2026-05-04 20:27 | 40.41448 | -3.47607 | 3416 ft | 137 kts | 321° |
| 2026-05-04 20:27 | 40.42177 | -3.48347 | 3241 ft | 128 kts | 321° |
| 2026-05-04 20:28 | 40.42898 | -3.49084 | 3064 ft | 134 kts | 320° |
| 2026-05-04 20:28 | 40.43639 | -3.49840 | 2907 ft | 138 kts | 321° |
| 2026-05-04 20:28 | 40.44405 | -3.50629 | 2731 ft | 139 kts | 321° |
| 2026-05-04 20:28 | 40.45159 | -3.51394 | 2510 ft | 135 kts | 319° |
| 2026-05-04 20:29 | 40.45893 | -3.52142 | 2318 ft | 132 kts | 320° |
| 2026-05-04 20:29 | 40.46605 | -3.52859 | 2168 ft | 128 kts | 319° |
| 2026-05-04 20:29 | 40.47312 | -3.53567 | 2032 ft | 129 kts | 319° |
| 2026-05-04 20:29 | 40.47964 | -3.54239 | 1989 ft | 104 kts | 323° |
| 2026-05-04 20:30 | 40.48392 | -3.54671 | 1989 ft | 57 kts | 322° |
| 2026-05-04 20:30 | 40.48654 | -3.54935 | 1989 ft | 40 kts | 323° |
| 2026-05-04 20:30 | 40.48841 | -3.55122 | 1989 ft | 30 kts | 322° |
| 2026-05-04 20:30 | 40.49004 | -3.55292 | 1989 ft | 30 kts | 321° |
| 2026-05-04 20:31 | 40.49150 | -3.55472 | 1987 ft | 25 kts | 308° |
| 2026-05-04 20:31 | 40.49224 | -3.55636 | 1987 ft | 16 kts | 293° |
| 2026-05-04 20:31 | 40.49260 | -3.55755 | 1987 ft | 9 kts | 292° |
| 2026-05-04 20:31 | 40.49278 | -3.55812 | 1987 ft | 4 kts | 292° |
| 2026-05-04 20:32 | 40.49278 | -3.55813 | 1987 ft | 0 kts | 292° |
| 2026-05-04 20:32 | 40.49287 | -3.55840 | 1987 ft | 11 kts | 292° |
| 2026-05-04 20:32 | 40.49299 | -3.55971 | 1988 ft | 11 kts | 266° |
| 2026-05-04 20:33 | 40.49298 | -3.56064 | 1986 ft | 7 kts | 271° |
| 2026-05-04 20:33 | 40.49298 | -3.56089 | 1988 ft | 0 kts | 271° |
| 2026-05-04 20:33 | 40.49300 | -3.56135 | 1988 ft | 13 kts | 272° |
| 2026-05-04 20:34 | 40.49367 | -3.56247 | 1987 ft | 19 kts | 344° |
| 2026-05-04 20:34 | 40.49496 | -3.56255 | 1985 ft | 19 kts | 0° |
| 2026-05-04 20:34 | 40.49595 | -3.56254 | 1985 ft | 13 kts | 0° |
| 2026-05-04 20:34 | 40.49683 | -3.56253 | 1988 ft | 13 kts | 0° |
| 2026-05-04 20:35 | 40.49809 | -3.56254 | 1987 ft | 22 kts | 360° |
| 2026-05-04 20:35 | 40.49919 | -3.56273 | 1987 ft | 11 kts | 321° |
| 2026-05-04 20:35 | 40.49940 | -3.56340 | 1986 ft | 8 kts | 277° |
| 2026-05-04 20:35 | 40.49940 | -3.56411 | 1985 ft | 8 kts | 268° |
| 2026-05-04 20:36 | 40.49937 | -3.56482 | 1985 ft | 8 kts | 267° |
| 2026-05-04 20:36 | 40.49911 | -3.56540 | 1988 ft | 8 kts | 210° |
| 2026-05-04 20:36 | 40.49858 | -3.56556 | 1988 ft | 8 kts | 183° |
| 2026-05-04 20:36 | 40.49813 | -3.56560 | 1986 ft | 6 kts | 197° |
| 2026-05-04 20:37 | 40.49786 | -3.56590 | 1987 ft | 4 kts | 240° |
| 2026-05-04 20:37 | 40.49785 | -3.56629 | 1987 ft | 4 kts | 271° |
| 2026-05-04 20:37 | 40.49785 | -3.56654 | 1987 ft | 0 kts | 270° |